Weather History for Grove, OK

Change the Weather History Date:

Thursday, December 20, 2012

  Actual Average (KSLG) Record (KSLG)
Temperature  
Mean Temperature 46 °F -  
Max Temperature 60 °F 43 °F 62 °F (2013)
Min Temperature 33 °F 25 °F 6 °F (1996)
Degree Days  
Heating Degree Days 18    
Moisture  
Dew Point 26 °F    
Average Humidity 61    
Maximum Humidity 93    
Minimum Humidity 44    
Precipitation  
Precipitation 0.00 in - - ()
Sea Level Pressure  
Sea Level Pressure 30.02 in    
Wind  
Wind Speed 17 mph (WNW)    
Max Wind Speed 30 mph    
Max Gust Speed 41 mph    
Visibility 10 miles    
Events Snow    
Averages and records for this station are not official NWS values.
T = Trace of Precipitation, MM = Missing Value Source: NWS Daily Summary

Daily Weather History Graph

Daily Weather History Graph

Search for Another Location

Airport:

Trip Planner

Search our weather history database for the weather conditions in past years. The results will help you decide how hot, cold, wet, or windy it might be!

Date:

Astronomy

Dec. 20, 2012 Rise Set
Actual Time 7:27 AM CST 5:06 PM CST
Civil Twilight 6:58 AM CST 5:35 PM CST
Nautical Twilight 6:25 AM CST 6:07 PM CST
Astronomical Twilight 5:54 AM CST 6:39 PM CST
Moon 12:17 PM CST (12/20) 12:23 AM CST (12/20)
Length of Visible Light 10h 37m
Length of Day
9h 39m
First Quarter, 55% of the Moon is Illuminated
Dec 20
First Quarter
Dec 28
Full
Jan 4
Last Quarter
Jan 11
New
Jan 18
First Quarter

Hourly Weather History & Observations

Time (CST) Temp. Windchill Dew Point Humidity Pressure Visibility Wind Dir Wind Speed Gust Speed Precip Events Conditions
12:15 AM 60.8 °F - 42.8 °F 52% 29.43 in 10.0 mi SSW 6.9 mph - N/A   Scattered Clouds
12:35 AM 60.8 °F - 41.0 °F 48% 29.43 in 10.0 mi SW 11.5 mph 17.3 mph N/A   Scattered Clouds
12:55 AM 59.0 °F - 39.2 °F 48% 29.46 in 10.0 mi SW 24.2 mph 29.9 mph N/A   Clear
1:15 AM 55.4 °F - 37.4 °F 51% 29.48 in 10.0 mi WSW 26.5 mph 41.4 mph N/A   Clear
1:35 AM 53.6 °F - 35.6 °F 51% 29.50 in 10.0 mi WSW 21.9 mph 33.4 mph N/A   Clear
1:55 AM 51.8 °F - 37.4 °F 58% 29.52 in 10.0 mi WSW 24.2 mph 35.7 mph N/A   Clear
2:15 AM 50.0 °F - 41.0 °F 71% 29.54 in 10.0 mi West 21.9 mph 32.2 mph N/A   Mostly Cloudy
2:35 AM 44.6 °F 35.7 °F 41.0 °F 87% 29.57 in 10.0 mi West 24.2 mph 39.1 mph N/A   Overcast
2:55 AM 42.8 °F 34.5 °F 41.0 °F 93% 29.59 in 5.0 mi West 18.4 mph 32.2 mph N/A   Overcast
3:15 AM 41.0 °F 31.4 °F 35.6 °F 81% 29.62 in 10.0 mi West 21.9 mph 31.1 mph N/A   Overcast
3:35 AM 41.0 °F 31.4 °F 33.8 °F 76% 29.63 in 10.0 mi West 21.9 mph 34.5 mph N/A   Overcast
3:55 AM 39.2 °F 30.2 °F 33.8 °F 81% 29.65 in 10.0 mi West 17.3 mph 34.5 mph N/A   Overcast
4:15 AM 39.2 °F 30.2 °F 32.0 °F 75% 29.67 in 10.0 mi West 17.3 mph 35.7 mph N/A   Overcast
4:35 AM 37.4 °F 26.6 °F 32.0 °F 81% 29.70 in 10.0 mi West 21.9 mph 36.8 mph N/A   Overcast
4:55 AM 37.4 °F 26.9 °F 32.0 °F 81% 29.72 in 10.0 mi West 20.7 mph 36.8 mph N/A   Overcast
5:15 AM 37.4 °F 25.6 °F 30.2 °F 75% 29.75 in 10.0 mi WNW 26.5 mph 36.8 mph N/A   Overcast
5:35 AM 35.6 °F 24.8 °F 30.2 °F 81% 29.77 in 10.0 mi WNW 19.6 mph 36.8 mph N/A   Overcast
5:55 AM 35.6 °F 24.8 °F 30.2 °F 81% 29.80 in 10.0 mi WNW 19.6 mph 38.0 mph N/A   Overcast
6:15 AM 35.6 °F 22.5 °F 28.4 °F 75% 29.83 in 10.0 mi WNW 29.9 mph 40.3 mph N/A   Overcast
6:35 AM 35.6 °F 24.5 °F 28.4 °F 75% 29.85 in 10.0 mi WNW 20.7 mph 33.4 mph N/A   Overcast
6:55 AM 33.8 °F 21.0 °F 28.4 °F 81% 29.87 in 10.0 mi WNW 25.3 mph 34.5 mph N/A   Overcast
7:15 AM 33.8 °F 22.2 °F 28.4 °F 81% 29.89 in 10.0 mi WNW 20.7 mph 35.7 mph N/A   Overcast
7:35 AM 33.8 °F 23.2 °F 30.2 °F 87% 29.91 in 10.0 mi WNW 17.3 mph 39.1 mph N/A   Overcast
7:55 AM 33.8 °F 23.5 °F 30.2 °F 87% 29.93 in 3.0 mi WNW 16.1 mph 33.4 mph N/A Snow Light Snow
8:15 AM 33.8 °F 21.9 °F 32.0 °F 93% 29.95 in 5.0 mi WNW 21.9 mph 29.9 mph N/A   Overcast
8:35 AM 33.8 °F 23.2 °F 28.4 °F 81% 29.96 in 10.0 mi WNW 17.3 mph 29.9 mph N/A   Mostly Cloudy
8:55 AM 33.8 °F 22.2 °F 28.4 °F 81% 29.99 in 10.0 mi WNW 20.7 mph 28.8 mph N/A   Mostly Cloudy
9:15 AM 33.8 °F 22.8 °F 26.6 °F 75% 30.01 in 10.0 mi WNW 18.4 mph 33.4 mph N/A   Overcast
9:35 AM 33.8 °F 23.5 °F 26.6 °F 75% 30.02 in 10.0 mi WNW 16.1 mph 32.2 mph N/A   Overcast
9:55 AM 33.8 °F 23.9 °F 26.6 °F 75% 30.04 in 10.0 mi WNW 15.0 mph 33.4 mph N/A   Overcast
10:15 AM 35.6 °F 24.5 °F 26.6 °F 70% 30.05 in 10.0 mi WNW 20.7 mph 32.2 mph N/A   Scattered Clouds
10:35 AM 35.6 °F 24.8 °F 24.8 °F 65% 30.07 in 10.0 mi WNW 19.6 mph 29.9 mph N/A   Scattered Clouds
10:55 AM 35.6 °F 24.8 °F 23.0 °F 60% 30.08 in 10.0 mi WNW 19.6 mph 27.6 mph N/A   Clear
11:15 AM 37.4 °F 26.9 °F 23.0 °F 56% 30.08 in 10.0 mi WNW 20.7 mph 32.2 mph N/A   Clear
11:35 AM 37.4 °F 27.5 °F 23.0 °F 56% 30.09 in 10.0 mi WNW 18.4 mph 29.9 mph N/A   Clear
11:55 AM 37.4 °F 27.5 °F 23.0 °F 56% 30.09 in 10.0 mi NW 18.4 mph 29.9 mph N/A   Clear
12:15 PM 37.4 °F 26.4 °F 23.0 °F 56% 30.10 in 10.0 mi WNW 23.0 mph 34.5 mph N/A   Clear
12:35 PM 39.2 °F 29.0 °F 23.0 °F 52% 30.11 in 10.0 mi WNW 21.9 mph 28.8 mph N/A   Clear
12:55 PM 39.2 °F 29.6 °F 23.0 °F 52% 30.12 in 10.0 mi WNW 19.6 mph 29.9 mph N/A   Clear
1:15 PM 41.0 °F 32.8 °F 23.0 °F 49% 30.12 in 10.0 mi WNW 16.1 mph 29.9 mph N/A   Clear
1:35 PM 41.0 °F 31.9 °F 23.0 °F 49% 30.13 in 10.0 mi WNW 19.6 mph 27.6 mph N/A   Clear
1:55 PM 41.0 °F 30.9 °F 23.0 °F 49% 30.14 in 10.0 mi WNW 24.2 mph 34.5 mph N/A   Clear
2:15 PM 41.0 °F 31.9 °F 21.2 °F 45% 30.15 in 10.0 mi WNW 19.6 mph 31.1 mph N/A   Clear
2:35 PM 41.0 °F 32.5 °F 23.0 °F 49% 30.15 in 10.0 mi WNW 17.3 mph 28.8 mph N/A   Clear
2:55 PM 41.0 °F 31.4 °F 21.2 °F 45% 30.17 in 10.0 mi WNW 21.9 mph 31.1 mph N/A   Clear
3:15 PM 41.0 °F 32.5 °F 23.0 °F 49% 30.17 in 10.0 mi WNW 17.3 mph 26.5 mph N/A   Clear
3:35 PM 41.0 °F 31.1 °F 21.2 °F 45% 30.19 in 10.0 mi NW 23.0 mph 27.6 mph N/A   Clear
3:55 PM 41.0 °F 33.1 °F 21.2 °F 45% 30.20 in 10.0 mi WNW 15.0 mph 21.9 mph N/A   Clear
4:15 PM 41.0 °F 32.5 °F 21.2 °F 45% 30.21 in 10.0 mi WNW 17.3 mph 25.3 mph N/A   Clear
4:35 PM 39.2 °F 30.2 °F 21.2 °F 49% 30.22 in 10.0 mi WNW 17.3 mph 27.6 mph N/A   Clear
4:55 PM 37.4 °F 27.8 °F 21.2 °F 52% 30.23 in 10.0 mi WNW 17.3 mph 24.2 mph N/A   Clear
5:15 PM 37.4 °F 28.9 °F 21.2 °F 52% 30.24 in 10.0 mi WNW 13.8 mph 20.7 mph N/A   Clear
5:35 PM 37.4 °F 30.3 °F 21.2 °F 52% 30.25 in 10.0 mi WNW 10.4 mph 19.6 mph N/A   Clear
5:55 PM 35.6 °F 27.5 °F 21.2 °F 56% 30.25 in 10.0 mi WNW 11.5 mph 17.3 mph N/A   Clear
6:15 PM 35.6 °F 28.6 °F 19.4 °F 52% 30.26 in 10.0 mi WNW 9.2 mph - N/A   Clear
6:35 PM 35.6 °F 28.6 °F 19.4 °F 52% 30.27 in 10.0 mi West 9.2 mph - N/A   Clear
6:55 PM 35.6 °F 29.2 °F 17.6 °F 48% 30.28 in 10.0 mi WNW 8.1 mph - N/A   Clear
7:15 PM 35.6 °F 27.1 °F 15.8 °F 44% 30.28 in 10.0 mi WNW 12.7 mph 18.4 mph N/A   Clear
7:35 PM 33.8 °F 27.0 °F 17.6 °F 52% 30.29 in 10.0 mi West 8.1 mph - N/A   Clear
7:55 PM 33.8 °F 25.8 °F 17.6 °F 52% 30.29 in 10.0 mi West 10.4 mph - N/A   Clear
8:15 PM 33.8 °F 25.8 °F 15.8 °F 48% 30.29 in 10.0 mi West 10.4 mph - N/A   Clear
8:35 PM 33.8 °F 26.4 °F 17.6 °F 52% 30.30 in 10.0 mi West 9.2 mph - N/A   Clear
8:55 PM 33.8 °F 26.4 °F 17.6 °F 52% 30.31 in 10.0 mi West 9.2 mph - N/A   Clear
9:15 PM 33.8 °F 25.8 °F 17.6 °F 52% 30.31 in 10.0 mi West 10.4 mph - N/A   Clear
9:35 PM 33.8 °F 25.8 °F 17.6 °F 52% 30.32 in 10.0 mi West 10.4 mph 16.1 mph N/A   Clear
9:55 PM 33.8 °F 25.8 °F 17.6 °F 52% 30.32 in 10.0 mi West 10.4 mph - N/A   Clear
10:15 PM 33.8 °F 26.4 °F 17.6 °F 52% 30.32 in 10.0 mi West 9.2 mph - N/A   Clear
10:35 PM 33.8 °F 25.8 °F 17.6 °F 52% 30.33 in 10.0 mi West 10.4 mph - N/A   Clear
10:55 PM 33.8 °F 26.4 °F 17.6 °F 52% 30.33 in 10.0 mi West 9.2 mph - N/A   Clear
11:15 PM 33.8 °F 25.8 °F 17.6 °F 52% 30.33 in 10.0 mi West 10.4 mph - N/A   Clear
11:35 PM 33.8 °F 27.7 °F 17.6 °F 52% 30.33 in 10.0 mi West 6.9 mph - N/A   Clear
11:55 PM 33.8 °F 27.0 °F 17.6 °F 52% 30.33 in 10.0 mi WNW 8.1 mph - N/A   Clear